Central Nebraska Regional Airport Grand Island US
ICAO: KGRI
IATA: GRI
Category: Medium
Scheduled Services: Yes

Elevation: 1847 ft
TransAlt. 18000 ft.

Airport Communications:
ATIS:127.4
CLNC DEL:121.9
MINNEAPOLIS CNTR:119.4
CTAF:118.2
GND:121.9
ARNG OPS:38
COLUMBUS RDO:122.45
GRAND ISLAND TWR:118.2
UNICOM:122.95

KGRI Zoom In..

Runways:

(A) RW 13 length 6608 ft width 100 ft
---- / hdg 128

(B) RW 17 length 7002 ft width 150 ft
---- / hdg 173

(C) RW 31 length 6608 ft width 100 ft
---- / hdg 308

(D) RW 35 length 7002 ft width 150 ft
ILS 111.90 / hdg 353

Location; KGRI
Day. 22 / Time. 00.10 Zulu
* Altimeter: 29.71
* Temperature: 01° c. 33.8°f.
* Wind from: 040° Speed 19 kn with Gusts up to 29 kn.
Dewpoint: 01° c.
Visibility: 2 Statute Miles.
Clouds: Overcast 400 ft.
Conditions: Light Snow.Conditions: Mist.

KGRI 220010Z 04019G29KT 2SM -SN BR OVC004 01/01 A2971 RMK AO2 PK WND 04029/0001 P0001 T00060006


Wind From 040°
Speed 19 kn.

jpsM music video
CHECK IT OUT

jpsM - It Moves..

 
jpsmedia.com for Web Design  worldairports.se 2018   terms of use